createdAt,value
2022-08-11T00:02:20.521Z,98540.00
2022-08-11T00:06:36.287Z,98542.00
2022-08-11T00:10:38.717Z,98542.00
2022-08-11T00:14:41.551Z,98529.00
2022-08-11T00:18:45.174Z,98525.00
2022-08-11T00:22:47.370Z,98534.00
2022-08-11T00:26:53.474Z,98536.00
2022-08-11T00:30:57.651Z,98542.00
2022-08-11T00:35:53.702Z,98536.00
2022-08-11T00:39:06.545Z,98542.00
2022-08-11T00:43:23.711Z,98544.00
2022-08-11T00:47:34.774Z,98535.00
2022-08-11T00:52:05.013Z,98538.00
2022-08-11T00:56:22.692Z,98536.00
2022-08-11T01:00:26.381Z,98531.00
2022-08-11T01:04:43.251Z,98538.00
2022-08-11T01:09:02.332Z,98540.00
2022-08-11T01:13:29.074Z,98546.00
2022-08-11T01:18:07.137Z,98540.00
2022-08-11T01:22:11.951Z,98541.00
2022-08-11T01:26:16.759Z,98542.00
2022-08-11T01:30:33.571Z,98541.00
2022-08-11T01:35:07.434Z,98544.00
2022-08-11T01:39:39.398Z,98539.00
2022-08-11T01:44:13.114Z,98537.00
2022-08-11T01:48:20.663Z,98422.00
2022-08-11T01:52:40.025Z,98540.00
2022-08-11T01:57:13.343Z,98542.00
2022-08-11T02:01:50.753Z,98547.00
2022-08-11T02:06:09.353Z,98547.00
2022-08-11T02:10:51.550Z,98545.00
2022-08-11T02:15:23.587Z,98544.00
2022-08-11T02:20:06.666Z,98543.00
2022-08-11T02:24:14.379Z,98545.00
2022-08-11T02:28:26.991Z,98548.00
2022-08-11T02:33:07.129Z,98548.00
2022-08-11T02:37:33.230Z,98544.00
2022-08-11T02:41:58.830Z,98548.00
2022-08-11T02:46:21.757Z,98541.00
2022-08-11T02:50:26.598Z,98544.00
2022-08-11T02:54:40.246Z,98551.00
2022-08-11T02:59:21.764Z,98544.00
2022-08-11T03:03:32.661Z,98540.00
2022-08-11T03:07:43.458Z,98539.00
2022-08-11T03:12:24.571Z,98530.00
2022-08-11T03:16:47.584Z,98539.00
2022-08-11T03:20:58.227Z,98529.00
2022-08-11T03:25:19.366Z,98525.00
2022-08-11T03:29:26.952Z,98527.00
2022-08-11T03:33:53.413Z,98524.00
2022-08-11T03:37:58.341Z,98535.00
2022-08-11T03:42:06.660Z,98537.00
2022-08-11T03:46:09.966Z,98522.00
2022-08-11T03:50:42.786Z,98530.00
2022-08-11T03:55:11.912Z,98524.00
2022-08-11T03:59:22.434Z,98536.00
2022-08-11T04:04:00.540Z,98538.00
2022-08-11T04:08:17.254Z,98535.00
2022-08-11T04:12:36.645Z,98538.00
2022-08-11T04:16:43.877Z,98535.00
2022-08-11T04:21:06.587Z,98549.00
2022-08-11T04:25:23.402Z,98550.00
2022-08-11T04:30:04.994Z,98531.00
2022-08-11T04:34:07.372Z,98539.00
2022-08-11T04:38:31.995Z,98544.00
2022-08-11T04:43:22.283Z,98543.00
2022-08-11T04:48:03.638Z,98558.00
2022-08-11T04:52:19.505Z,98572.00
2022-08-11T04:56:42.084Z,98550.00
2022-08-11T05:01:14.656Z,98550.00
2022-08-11T05:05:31.603Z,98542.00
2022-08-11T05:09:42.323Z,98544.00
2022-08-11T05:14:08.504Z,98550.00
2022-08-11T05:18:34.441Z,98553.00
2022-08-11T05:22:55.195Z,98561.00
2022-08-11T05:27:18.968Z,98558.00
2022-08-11T05:31:42.465Z,98568.00
2022-08-11T05:36:02.143Z,98569.00
2022-08-11T05:40:16.878Z,98568.00
2022-08-11T05:44:38.690Z,98578.00
2022-08-11T05:48:59.449Z,98573.00
2022-08-11T05:53:21.364Z,98575.00
2022-08-11T05:57:51.279Z,98576.00
2022-08-11T06:01:32.605Z,98573.00
2022-08-11T06:05:38.679Z,98577.00
2022-08-11T06:09:48.144Z,98579.00
2022-08-11T06:13:49.588Z,98573.00
2022-08-11T06:17:51.275Z,98573.00
2022-08-11T06:21:53.549Z,98578.00
2022-08-11T06:25:56.276Z,98576.00
2022-08-11T06:29:58.535Z,98574.00
2022-08-11T06:34:09.466Z,98569.00
2022-08-11T06:38:15.450Z,98582.00
2022-08-11T06:42:36.386Z,98572.00
2022-08-11T06:46:40.692Z,98574.00
2022-08-11T06:51:03.732Z,98573.00
2022-08-11T06:55:54.889Z,98572.00
2022-08-11T06:59:30.922Z,98579.00
2022-08-11T07:03:35.810Z,98579.00
2022-08-11T07:08:33.614Z,98577.00
2022-08-11T07:12:27.368Z,98568.00
2022-08-11T07:16:30.029Z,98578.00
2022-08-11T07:20:49.594Z,98568.00
2022-08-11T07:25:22.294Z,98569.00
2022-08-11T07:29:23.642Z,98574.00
2022-08-11T07:34:08.239Z,98575.00
2022-08-11T07:37:35.454Z,98568.00
2022-08-11T07:41:36.663Z,98563.00
2022-08-11T07:46:16.047Z,98565.00
2022-08-11T07:50:35.609Z,98568.00
2022-08-11T07:54:38.577Z,98556.00
2022-08-11T07:59:04.232Z,98551.00
2022-08-11T08:03:21.376Z,98557.00
2022-08-11T08:07:41.719Z,98557.00
2022-08-11T08:12:02.810Z,98569.00
2022-08-11T08:16:22.984Z,98578.00
2022-08-11T08:20:40.234Z,98567.00
2022-08-11T08:24:42.989Z,98560.00
2022-08-11T08:28:45.920Z,98570.00
2022-08-11T08:32:47.895Z,98563.00
2022-08-11T08:36:51.428Z,98567.00
2022-08-11T08:40:55.991Z,98568.00
2022-08-11T08:45:00.366Z,98553.00
2022-08-11T08:49:03.365Z,98560.00
2022-08-11T08:53:06.686Z,98559.00
2022-08-11T08:57:09.288Z,98572.00
2022-08-11T09:01:12.858Z,98503.00
2022-08-11T09:05:18.640Z,98562.00
2022-08-11T09:09:23.813Z,98559.00
2022-08-11T09:13:26.987Z,98566.00
2022-08-11T09:17:31.367Z,98558.00
2022-08-11T09:21:46.436Z,98567.00
2022-08-11T09:25:54.816Z,98554.00
2022-08-11T09:29:56.636Z,98543.00
2022-08-11T09:33:58.909Z,98545.00
2022-08-11T09:38:19.661Z,98538.00
2022-08-11T09:42:25.208Z,98539.00
2022-08-11T09:46:28.160Z,98537.00
2022-08-11T09:50:29.899Z,98535.00
2022-08-11T09:54:33.321Z,98528.00
2022-08-11T09:58:43.026Z,98530.00
2022-08-11T10:02:45.487Z,98542.00
2022-08-11T10:07:01.531Z,98531.00
2022-08-11T10:11:08.279Z,98529.00
2022-08-11T10:15:31.854Z,98541.00
2022-08-11T10:19:37.516Z,98523.00
2022-08-11T10:24:00.392Z,98521.00
2022-08-11T10:28:28.306Z,98521.00
2022-08-11T10:32:31.590Z,98518.00
2022-08-11T10:36:39.138Z,98521.00
2022-08-11T10:40:42.587Z,98521.00
2022-08-11T10:44:47.299Z,98516.00
2022-08-11T10:48:48.932Z,98515.00
2022-08-11T10:53:09.339Z,98510.00
2022-08-11T10:57:29.926Z,98488.00
2022-08-11T11:01:39.605Z,98492.00
2022-08-11T11:06:12.821Z,98490.00
2022-08-11T11:09:48.141Z,98480.00
2022-08-11T11:14:10.148Z,98480.00
2022-08-11T11:18:24.252Z,98478.00
2022-08-11T11:22:37.619Z,98472.00
2022-08-11T11:26:57.791Z,98464.00
2022-08-11T11:31:08.313Z,98466.00
2022-08-11T11:35:19.469Z,98474.00
2022-08-11T11:39:26.537Z,98452.00
2022-08-11T11:43:28.515Z,98459.00
2022-08-11T11:47:31.350Z,98450.00
2022-08-11T11:51:33.139Z,98438.00
2022-08-11T11:55:35.729Z,98445.00
2022-08-11T11:59:55.000Z,98440.00
2022-08-11T12:03:57.611Z,98442.00
2022-08-11T12:08:18.309Z,98427.00
2022-08-11T12:12:38.863Z,98426.00
2022-08-11T12:16:43.216Z,98420.00
2022-08-11T12:20:45.549Z,98414.00
2022-08-11T12:25:05.585Z,98415.00
2022-08-11T12:29:09.643Z,98415.00
2022-08-11T12:33:12.129Z,98419.00
2022-08-11T12:37:14.925Z,98402.00
2022-08-11T12:41:34.916Z,98401.00
2022-08-11T12:45:39.952Z,98396.00
2022-08-11T12:50:02.976Z,98410.00
2022-08-11T12:54:16.434Z,98394.00
2022-08-11T12:58:17.750Z,98391.00
2022-08-11T13:02:43.877Z,98386.00
2022-08-11T13:06:43.806Z,98384.00
2022-08-11T13:11:04.762Z,98380.00
2022-08-11T13:15:07.098Z,98374.00
2022-08-11T13:19:10.187Z,98381.00
2022-08-11T13:23:12.839Z,98374.00
2022-08-11T13:27:17.692Z,98366.00
2022-08-11T13:31:18.913Z,98367.00
2022-08-11T13:35:20.842Z,98354.00
2022-08-11T13:39:25.180Z,98352.00
2022-08-11T13:43:28.111Z,98343.00
2022-08-11T13:47:29.740Z,98343.00
2022-08-11T13:51:35.388Z,98350.00
2022-08-11T13:55:52.107Z,98342.00
2022-08-11T13:59:51.725Z,98351.00
2022-08-11T14:04:30.734Z,98343.00
2022-08-11T14:07:52.426Z,98334.00
2022-08-11T14:12:23.262Z,98325.00
2022-08-11T14:16:22.117Z,98318.00
2022-08-11T14:20:40.183Z,98317.00
2022-08-11T14:24:28.116Z,98313.00
2022-08-11T14:28:36.560Z,98308.00
2022-08-11T14:32:36.117Z,98299.00
2022-08-11T14:36:45.644Z,98304.00
2022-08-11T14:41:06.750Z,98305.00
2022-08-11T14:45:54.421Z,98295.00
2022-08-11T14:49:38.007Z,98292.00
2022-08-11T14:53:41.074Z,98294.00
2022-08-11T14:57:55.271Z,98282.00
2022-08-11T15:02:05.983Z,98280.00
2022-08-11T15:06:07.534Z,98279.00
2022-08-11T15:10:13.008Z,98225.00
2022-08-11T15:14:16.466Z,98283.00
2022-08-11T15:18:20.368Z,98270.00
2022-08-11T15:22:40.342Z,98265.00
2022-08-11T15:27:00.963Z,98257.00
2022-08-11T15:31:23.607Z,98248.00
2022-08-11T15:35:45.534Z,98241.00
2022-08-11T15:40:31.360Z,98231.00
2022-08-11T15:45:01.619Z,98235.00
2022-08-11T15:48:57.718Z,98243.00
2022-08-11T15:53:05.858Z,98228.00
2022-08-11T15:57:07.603Z,98230.00
2022-08-11T16:01:29.095Z,98234.00
2022-08-11T16:05:46.656Z,98220.00
2022-08-11T16:09:51.897Z,98227.00
2022-08-11T16:14:12.238Z,98216.00
2022-08-11T16:18:16.340Z,98212.00
2022-08-11T16:22:21.523Z,98223.00
2022-08-11T16:27:07.406Z,98220.00
2022-08-11T16:30:28.913Z,98209.00
2022-08-11T16:34:49.809Z,98207.00
2022-08-11T16:38:53.263Z,98206.00
2022-08-11T16:43:15.392Z,98211.00
2022-08-11T16:47:24.152Z,98203.00
2022-08-11T16:51:22.942Z,98202.00
2022-08-11T16:55:51.742Z,98197.00
2022-08-11T16:59:31.498Z,98198.00
2022-08-11T17:03:52.724Z,98199.00
2022-08-11T17:08:12.977Z,98196.00
2022-08-11T17:12:34.308Z,98191.00
2022-08-11T17:16:39.874Z,98189.00
2022-08-11T17:20:44.001Z,98185.00
2022-08-11T17:24:47.478Z,98180.00
2022-08-11T17:28:55.806Z,98183.00
2022-08-11T17:33:15.414Z,98184.00
2022-08-11T17:37:18.137Z,98182.00
2022-08-11T17:41:40.129Z,98188.00
2022-08-11T17:46:02.110Z,98188.00
2022-08-11T17:50:16.606Z,98187.00
2022-08-11T17:54:27.283Z,98192.00
2022-08-11T17:58:48.159Z,98189.00
2022-08-11T18:03:10.528Z,98193.00
2022-08-11T18:07:30.289Z,98191.00
2022-08-11T18:12:11.575Z,98207.00
2022-08-11T18:16:13.811Z,98209.00
2022-08-11T18:20:33.456Z,98217.00
2022-08-11T18:29:41.998Z,98217.00
2022-08-11T18:34:08.358Z,98215.00
2022-08-11T18:38:30.315Z,98216.00
2022-08-11T18:42:53.272Z,98222.00
2022-08-11T18:47:14.891Z,98228.00
2022-08-11T18:51:37.402Z,98220.00
2022-08-11T18:56:00.461Z,98225.00
2022-08-11T19:00:20.864Z,98224.00
2022-08-11T19:04:41.477Z,98219.00
2022-08-11T19:09:04.883Z,98231.00
2022-08-11T19:13:28.112Z,98235.00
2022-08-11T19:17:50.031Z,98237.00
2022-08-11T19:22:11.000Z,98238.00
2022-08-11T19:26:31.466Z,98241.00
2022-08-11T19:30:51.764Z,98240.00
2022-08-11T19:35:11.752Z,98246.00
2022-08-11T19:39:32.914Z,98240.00
2022-08-11T19:43:53.656Z,98243.00
2022-08-11T19:48:31.148Z,98251.00
2022-08-11T19:52:35.618Z,98250.00
2022-08-11T19:56:56.258Z,98259.00
2022-08-11T20:01:16.231Z,98254.00
2022-08-11T20:05:35.940Z,98261.00
2022-08-11T20:10:04.917Z,98253.00
2022-08-11T20:14:20.701Z,98266.00
2022-08-11T20:18:42.140Z,98274.00
2022-08-11T20:23:03.079Z,98264.00
2022-08-11T20:27:25.252Z,98269.00
2022-08-11T20:31:45.389Z,98278.00
2022-08-11T20:36:06.834Z,98270.00
2022-08-11T20:40:27.673Z,98268.00
2022-08-11T20:44:49.620Z,98260.00
2022-08-11T20:49:10.931Z,98273.00
2022-08-11T20:53:35.950Z,98264.00
2022-08-11T20:58:05.296Z,98275.00
2022-08-11T21:02:22.344Z,98271.00
2022-08-11T21:06:45.215Z,98272.00
2022-08-11T21:11:07.501Z,98273.00
2022-08-11T21:15:38.866Z,98280.00
2022-08-11T21:20:00.564Z,98272.00
2022-08-11T21:24:16.160Z,98288.00
2022-08-11T21:28:37.692Z,98283.00
2022-08-11T21:33:00.187Z,98286.00
2022-08-11T21:37:21.221Z,98288.00
2022-08-11T21:41:41.053Z,98285.00
2022-08-11T21:46:04.156Z,98280.00
2022-08-11T21:50:24.061Z,98289.00
2022-08-11T21:54:43.422Z,98290.00
2022-08-11T21:59:07.146Z,98291.00
2022-08-11T22:03:24.339Z,98290.00
2022-08-11T22:07:45.395Z,98291.00
2022-08-11T22:12:34.376Z,98293.00
2022-08-11T22:16:26.535Z,98293.00
2022-08-11T22:20:48.185Z,98296.00
2022-08-11T22:25:16.676Z,98291.00
2022-08-11T22:29:38.312Z,98289.00
2022-08-11T22:34:02.541Z,98301.00
2022-08-11T22:38:15.420Z,98298.00
2022-08-11T22:42:34.877Z,98302.00
2022-08-11T22:46:54.719Z,98303.00
2022-08-11T22:51:17.225Z,98297.00
2022-08-11T22:55:38.144Z,98307.00
2022-08-11T22:59:58.530Z,98302.00
2022-08-11T23:04:19.243Z,98308.00
2022-08-11T23:08:39.124Z,98298.00
2022-08-11T23:13:00.121Z,98309.00
2022-08-11T23:17:20.068Z,98309.00
2022-08-11T23:21:39.455Z,98301.00
2022-08-11T23:26:00.642Z,98309.00
2022-08-11T23:30:21.254Z,98300.00
2022-08-11T23:35:04.021Z,98289.00
2022-08-11T23:39:06.027Z,98284.00
2022-08-11T23:43:25.868Z,98275.00
2022-08-11T23:47:50.156Z,98270.00
2022-08-11T23:52:10.870Z,98270.00
2022-08-11T23:56:31.187Z,98272.00
